Pinned post

試験運用中です
不都合がありましたら
がにょ🛫( @ganyo )
までお願いいたします

RJTT 260600Z 04013KT 9999 -RA FEW020 SCT100 OVC120 21/15 Q1020 NOSIG RMK 1CU020 4AC100 8AS120 A3014

RJAA 260600Z 02008KT 9999 -RA FEW020 OVC110 20/16 Q1021 NOSIG RMK 1CU020 8AS110 A3016

RJOO 260600Z 06010KT 030V090 9999 VCSH FEW015 SCT030 BKN050 22/19 Q1018 RMK 1CU015 3CU030 5SC050 A3007

RJTT 260500Z 01010KT 9999 VCSH FEW020 BKN120 21/16 Q1021 NOSIG RMK 2CU020 7AC120 A3016

RJAA 260500Z 01008KT 9999 -RA FEW020 BKN050 21/15 Q1021 NOSIG RMK 1CU020 7SC050 A3017

RJOO 260500Z 06010KT 030V100 9999 VCSH FEW008 SCT030 BKN050 22/19 Q1018 RMK 1ST008 3CU030 5SC050 A3007

RJTT 260400Z 02011KT 9999 FEW020 SCT060 BKN140 22/15 Q1021 NOSIG RMK 1CU020 3SC060 6AC140 A3017

RJAA 260400Z 04006KT 360V070 9999 FEW030 BKN050 BKN120 21/15 Q1021 NOSIG RMK 1CU030 5SC050 7AC120 A3017

RJOO 260400Z 07013KT 9999 VCSH FEW015 SCT030 BKN050 22/18 Q1018 RMK 1CU015 3CU030 5SC050 A3008

RJTT 260300Z 01008KT 9999 FEW020 BKN050 BKN060 21/14 Q1022 NOSIG RMK 1CU020 5SC050 7SC060 A3019

RJAA 260300Z 05008KT 360V080 9999 FEW030 SCT140 BKN/// 21/15 Q1022 NOSIG RMK 1CU030 3AC140 A3019

RJOO 260300Z 08014KT 030V110 9999 VCSH FEW015 BKN060 BKN080 22/18 Q1019 RMK 1CU015 5SC060 6AC080 A3010

RJTT 260200Z 01010KT 9999 FEW020 BKN050 21/15 Q1023 NOSIG RMK 1CU020 7SC050 A3022

RJAA 260200Z 04011KT 350V060 9999 FEW030 BKN140 BKN/// 21/14 Q1023 NOSIG RMK 1CU030 5AC140 A3021

RJOO 260200Z 07012KT 9999 FEW015 SCT070 BKN090 22/19 Q1019 RMK 1CU015 3AC070 6AC090 A3011

RJTT 260100Z 36009KT 9999 FEW020 BKN050 21/16 Q1023 NOSIG RMK 1CU020 7SC050 A3022

RJAA 260100Z 03010KT 9999 FEW030 BKN150 21/14 Q1023 NOSIG RMK 1CU030 7AC150 A3023

RJOO 260100Z 07013KT 9999 FEW015 SCT070 BKN100 23/19 Q1019 RMK 1CU015 3AC070 6AC100 A3011

RJTT 260000Z 01010KT 9999 FEW020 BKN050 21/15 Q1023 NOSIG RMK 1CU020 7SC050 A3022

RJAA 260000Z 03010KT 9999 FEW030 BKN190 21/13 Q1023 NOSIG RMK 1CU030 7AC190 A3022

Show older
hikoukidon

個人運用サーバです。 Private server.